Plymouth, Wisconsin
Current Conditions -  °F | °C
As of 3:53 PM on Tuesday 21 Oct 2014 (Local Time) from KSBM Reporting Station
Clear Clear  
Wind Chill: 50°   Ceiling: Unl
Heat Index: 50°   Visibility: 10mi
Dew Point: 38°   Wind: 12mph
Humidity: 63%   Direction: 50°NE
Pressure: 30.22"   Gusts: NA
Location:  43.75°N, 87.98°W
Report Text: KSBM 212053Z AUTO 05010KT 10SM CLR 10/03 A3022 RMK AO2 SLP237 T01000033 53001
Loading
Personal Weather Stations






























Interactive Weather Map
Tropical Storm Tracking
New forecast layout! Learn more

10-Day Weather Forecast

Advertisements
Track Severe Weather on mobile